createdAt,value
2022-08-21T00:03:23.037Z,22
2022-08-21T00:08:35.932Z,22
2022-08-21T00:13:47.796Z,22
2022-08-21T00:19:00.690Z,22
2022-08-21T00:24:13.703Z,22
2022-08-21T00:29:26.426Z,22
2022-08-21T00:34:39.439Z,21
2022-08-21T00:39:52.355Z,21
2022-08-21T00:45:05.248Z,21
2022-08-21T00:50:22.681Z,21
2022-08-21T00:55:36.596Z,21
2022-08-21T01:00:49.028Z,21
2022-08-21T01:06:01.902Z,21
2022-08-21T01:11:14.643Z,21
2022-08-21T01:16:27.550Z,21
2022-08-21T01:21:40.400Z,21
2022-08-21T01:26:53.396Z,21
2022-08-21T01:32:06.134Z,21
2022-08-21T01:37:18.925Z,21
2022-08-21T01:42:31.711Z,21
2022-08-21T02:18:49.568Z,21
2022-08-21T02:29:13.211Z,21
2022-08-21T02:34:29.947Z,21
2022-08-21T02:39:42.751Z,21
2022-08-21T02:44:55.511Z,21
2022-08-21T02:50:08.352Z,21
2022-08-21T02:55:21.233Z,21
2022-08-21T03:10:55.803Z,21
2022-08-21T03:21:19.605Z,21
2022-08-21T03:26:32.894Z,21
2022-08-21T05:30:56.814Z,22
2022-08-21T05:36:10.388Z,22
2022-08-21T05:41:23.309Z,22
2022-08-21T05:46:36.499Z,22
2022-08-21T05:51:49.293Z,22
2022-08-21T05:57:02.443Z,22
2022-08-21T06:02:15.490Z,22
2022-08-21T06:07:27.570Z,22
2022-08-21T06:12:43.344Z,22
2022-08-21T06:17:54.593Z,23
2022-08-21T06:23:06.922Z,23
2022-08-21T06:28:20.268Z,22
2022-08-21T06:33:33.461Z,23
2022-08-21T06:38:52.771Z,23
2022-08-21T06:44:04.682Z,23
2022-08-21T06:49:22.188Z,23
2022-08-21T06:54:39.389Z,23
2022-08-21T06:59:52.430Z,23
2022-08-21T07:05:19.207Z,23
2022-08-21T07:10:29.452Z,23
2022-08-21T07:15:41.753Z,23
2022-08-21T07:20:55.206Z,23
2022-08-21T07:26:07.961Z,23
2022-08-21T07:31:21.327Z,23
2022-08-21T07:36:35.762Z,23
2022-08-21T07:41:48.413Z,24
2022-08-21T07:47:00.919Z,23
2022-08-21T07:52:14.392Z,24
2022-08-21T07:57:28.112Z,24
2022-08-21T08:02:41.515Z,24
2022-08-21T08:07:54.893Z,24
2022-08-21T08:13:11.172Z,24
2022-08-21T08:18:23.782Z,24
2022-08-21T08:23:37.258Z,24
2022-08-21T08:28:50.007Z,25
2022-08-21T08:34:02.597Z,25
2022-08-21T08:39:30.324Z,25
2022-08-21T08:44:40.658Z,26
2022-08-21T08:49:53.103Z,26
2022-08-21T08:55:05.744Z,26
2022-08-21T09:00:18.656Z,26
2022-08-21T09:05:31.086Z,26
2022-08-21T09:10:43.422Z,26
2022-08-21T09:15:56.104Z,26
2022-08-21T09:21:08.597Z,26
2022-08-21T09:26:21.842Z,26
2022-08-21T09:31:34.885Z,27
2022-08-21T09:36:55.544Z,27
2022-08-21T09:42:09.984Z,27
2022-08-21T09:47:27.378Z,27
2022-08-21T09:52:42.034Z,27
2022-08-21T09:57:54.788Z,27
2022-08-21T10:03:07.365Z,27
2022-08-21T10:08:20.145Z,27
2022-08-21T10:13:32.937Z,28
2022-08-21T10:18:45.678Z,28
2022-08-21T10:23:58.548Z,28
2022-08-21T10:29:11.416Z,29
2022-08-21T10:34:25.181Z,29
2022-08-21T10:39:37.978Z,29
2022-08-21T10:44:50.642Z,29
2022-08-21T10:50:03.441Z,29
2022-08-21T10:55:15.948Z,29
2022-08-21T11:00:28.545Z,29
2022-08-21T11:05:40.923Z,29
2022-08-21T11:11:01.648Z,29
2022-08-21T11:16:17.994Z,30
2022-08-21T11:21:30.242Z,29
2022-08-21T11:26:42.872Z,30
2022-08-21T11:31:55.864Z,32
2022-08-21T11:37:09.055Z,33
2022-08-21T11:47:32.482Z,33
2022-08-21T11:52:45.389Z,33
2022-08-21T11:57:58.304Z,34
2022-08-21T12:03:11.487Z,34
2022-08-21T12:18:56.623Z,31
2022-08-21T12:24:07.343Z,33
2022-08-21T12:29:20.612Z,34
2022-08-21T12:44:54.798Z,31
2022-08-21T12:50:07.307Z,32
2022-08-21T12:55:20.150Z,32
2022-08-21T13:00:32.339Z,32
2022-08-21T13:05:45.489Z,34
2022-08-21T13:10:59.558Z,34
2022-08-21T13:16:23.978Z,33
2022-08-21T13:21:37.498Z,33
2022-08-21T13:26:50.118Z,34
2022-08-21T13:32:02.665Z,34
2022-08-21T13:37:18.857Z,33
2022-08-21T13:52:51.775Z,31
2022-08-21T13:58:04.305Z,31
2022-08-21T14:03:16.848Z,32
2022-08-21T14:08:30.910Z,32
2022-08-21T14:13:43.316Z,32
2022-08-21T14:24:05.866Z,31
2022-08-21T14:29:18.596Z,31
2022-08-21T14:34:36.448Z,31
2022-08-21T14:39:50.183Z,31
2022-08-21T14:45:02.605Z,31
2022-08-21T14:50:15.251Z,31
2022-08-21T14:55:27.698Z,31
2022-08-21T15:00:40.394Z,32
2022-08-21T15:05:52.986Z,31
2022-08-21T15:11:43.240Z,31
2022-08-21T15:27:24.403Z,31
2022-08-21T15:32:36.659Z,30
2022-08-21T15:42:59.698Z,30
2022-08-21T15:48:12.430Z,30
2022-08-21T15:53:24.815Z,30
2022-08-21T15:58:36.956Z,30
2022-08-21T16:03:49.447Z,29
2022-08-21T16:09:01.671Z,29
2022-08-21T16:14:13.934Z,29
2022-08-21T16:19:26.228Z,29
2022-08-21T16:24:40.949Z,29
2022-08-21T16:29:53.045Z,29
2022-08-21T16:35:05.396Z,29
2022-08-21T16:40:18.121Z,29
2022-08-21T16:45:33.818Z,29
2022-08-21T16:50:51.447Z,29
2022-08-21T16:56:07.969Z,30
2022-08-21T17:01:20.516Z,29
2022-08-21T17:06:32.997Z,29
2022-08-21T17:11:45.373Z,29
2022-08-21T17:16:57.846Z,29
2022-08-21T17:22:10.307Z,29
2022-08-21T17:37:42.631Z,28
2022-08-21T17:42:54.792Z,28
2022-08-21T17:48:07.015Z,28
2022-08-21T17:58:29.124Z,27
2022-08-21T18:03:41.217Z,27
2022-08-21T18:08:53.351Z,27
2022-08-21T18:14:08.608Z,27
2022-08-21T18:19:19.933Z,27
2022-08-21T18:24:32.080Z,27
2022-08-21T18:29:48.206Z,26
2022-08-21T18:34:59.454Z,26
2022-08-21T18:40:11.734Z,26
2022-08-21T18:45:24.124Z,26
2022-08-21T18:50:36.359Z,25
2022-08-21T18:55:49.746Z,26
2022-08-21T19:01:07.017Z,26
2022-08-21T19:06:22.480Z,26
2022-08-21T19:11:35.653Z,26
2022-08-21T19:16:48.272Z,25
2022-08-21T19:22:00.619Z,25
2022-08-21T19:27:14.028Z,25
2022-08-21T19:32:27.683Z,25
2022-08-21T19:37:41.438Z,25
2022-08-21T19:42:54.341Z,25
2022-08-21T19:48:07.628Z,25
2022-08-21T19:53:19.588Z,24
2022-08-21T19:58:32.044Z,25
2022-08-21T20:03:44.830Z,25
2022-08-21T20:09:09.164Z,25
2022-08-21T20:14:20.824Z,24
2022-08-21T20:19:33.525Z,25
2022-08-21T20:24:46.227Z,25
2022-08-21T20:29:59.801Z,25
2022-08-21T20:35:14.670Z,25
2022-08-21T20:40:33.831Z,24
2022-08-21T20:45:45.619Z,24
2022-08-21T20:50:57.932Z,24
2022-08-21T20:56:16.217Z,24
2022-08-21T21:01:33.224Z,24
2022-08-21T21:06:58.949Z,24
2022-08-21T21:12:09.131Z,24
2022-08-21T21:17:31.569Z,24
2022-08-21T21:22:43.828Z,24
2022-08-21T21:27:55.566Z,24
2022-08-21T21:33:08.526Z,24
2022-08-21T21:38:22.297Z,24
2022-08-21T21:43:34.868Z,24
2022-08-21T21:48:48.089Z,24
2022-08-21T21:54:00.780Z,24
2022-08-21T21:59:13.346Z,24
2022-08-21T22:04:29.166Z,23
2022-08-21T22:09:43.907Z,24
2022-08-21T22:14:55.866Z,24
2022-08-21T22:20:12.921Z,24
2022-08-21T22:25:29.199Z,24
2022-08-21T22:30:45.560Z,24
2022-08-21T22:31:21.220Z,24
2022-08-21T22:36:31.573Z,24
2022-08-21T22:41:43.843Z,24
2022-08-21T22:46:57.744Z,24
2022-08-21T22:52:11.261Z,24
2022-08-21T22:57:25.185Z,24
2022-08-21T23:02:38.875Z,24
2022-08-21T23:07:50.855Z,23
2022-08-21T23:13:11.316Z,23
2022-08-21T23:18:23.989Z,23
2022-08-21T23:23:37.618Z,23
2022-08-21T23:28:51.933Z,23
2022-08-21T23:34:06.713Z,23
2022-08-21T23:39:20.922Z,23
2022-08-21T23:44:32.252Z,23
2022-08-21T23:49:45.343Z,23
2022-08-21T23:54:57.613Z,23
